createdAt,value
2023-05-11T00:00:23.658Z,32.90
2023-05-11T00:02:52.134Z,33.30
2023-05-11T00:05:22.048Z,37.63
2023-05-11T00:07:50.765Z,36.77
2023-05-11T00:10:19.663Z,35.77
2023-05-11T00:12:48.411Z,34.87
2023-05-11T00:15:16.852Z,34.33
2023-05-11T00:17:46.883Z,37.97
2023-05-11T00:20:15.382Z,35.10
2023-05-11T00:22:45.340Z,37.20
2023-05-11T00:25:14.222Z,33.60
2023-05-11T00:27:45.988Z,39.13
2023-05-11T00:30:16.345Z,37.27
2023-05-11T00:32:46.745Z,35.73
2023-05-11T00:35:15.131Z,39.17
2023-05-11T00:37:48.355Z,40.90
2023-05-11T00:40:16.993Z,39.53
2023-05-11T00:42:45.496Z,38.50
2023-05-11T00:45:14.185Z,40.73
2023-05-11T00:47:43.424Z,36.30
2023-05-11T00:50:13.855Z,38.87
2023-05-11T00:52:43.199Z,38.13
2023-05-11T00:55:12.788Z,41.77
2023-05-11T00:57:41.511Z,43.03
2023-05-11T01:00:11.362Z,55.53
2023-05-11T01:02:40.576Z,47.93
2023-05-11T01:05:10.057Z,46.50
2023-05-11T01:07:49.075Z,56.53
2023-05-11T01:10:29.698Z,46.50
2023-05-11T01:13:06.817Z,46.47
2023-05-11T01:15:40.467Z,43.80
2023-05-11T01:18:18.541Z,42.53
2023-05-11T01:20:49.890Z,42.33
2023-05-11T01:23:46.765Z,39.20
2023-05-11T01:26:48.524Z,40.70
2023-05-11T01:29:49.898Z,38.23
2023-05-11T01:32:25.105Z,42.20
2023-05-11T01:35:02.591Z,33.80
2023-05-11T01:37:33.869Z,35.43
2023-05-11T01:40:10.944Z,40.90
2023-05-11T01:42:45.929Z,37.80
2023-05-11T01:45:16.763Z,42.83
2023-05-11T01:47:50.666Z,40.77
2023-05-11T01:50:21.969Z,48.60
2023-05-11T01:52:52.364Z,65.03
2023-05-11T01:55:23.868Z,57.83
2023-05-11T01:57:55.850Z,58.63
2023-05-11T02:00:25.177Z,77.70
2023-05-11T02:02:56.148Z,57.30
2023-05-11T02:05:26.005Z,76.93
2023-05-11T02:07:57.272Z,63.83
2023-05-11T02:10:28.269Z,58.07
2023-05-11T02:12:57.781Z,54.17
2023-05-11T02:15:27.799Z,50.53
2023-05-11T02:17:58.989Z,57.53
2023-05-11T02:20:28.772Z,50.07
2023-05-11T02:22:58.571Z,48.67
2023-05-11T02:25:28.144Z,53.00
2023-05-11T02:27:58.925Z,47.03
2023-05-11T02:30:30.430Z,43.23
2023-05-11T02:33:07.319Z,46.57
2023-05-11T02:35:43.005Z,45.80
2023-05-11T02:38:12.716Z,47.00
2023-05-11T02:40:48.591Z,36.97
2023-05-11T02:43:25.663Z,37.73
2023-05-11T02:46:00.036Z,36.03
2023-05-11T02:48:33.984Z,33.20
2023-05-11T02:51:03.912Z,30.27
2023-05-11T02:53:34.997Z,30.37
2023-05-11T02:56:03.817Z,30.67
2023-05-11T02:58:32.883Z,27.53
2023-05-11T03:01:02.296Z,25.50
2023-05-11T03:03:32.659Z,24.43
2023-05-11T03:06:01.397Z,22.60
2023-05-11T03:08:29.857Z,24.27
2023-05-11T03:11:00.599Z,23.73
2023-05-11T03:13:30.164Z,26.80
2023-05-11T03:16:00.848Z,24.37
2023-05-11T03:18:31.627Z,29.83
2023-05-11T03:21:03.144Z,29.43
2023-05-11T03:23:32.313Z,30.10
2023-05-11T03:26:01.644Z,29.90
2023-05-11T03:28:31.413Z,32.07
2023-05-11T03:31:00.415Z,35.83
2023-05-11T03:33:28.970Z,40.13
2023-05-11T03:36:02.694Z,38.10
2023-05-11T03:38:32.444Z,34.00
2023-05-11T03:41:02.201Z,41.67
2023-05-11T03:43:33.406Z,46.27
2023-05-11T03:46:03.864Z,39.10
2023-05-11T03:48:33.534Z,41.13
2023-05-11T03:51:05.725Z,40.20
2023-05-11T03:53:35.075Z,48.67
2023-05-11T03:56:04.819Z,49.60
2023-05-11T03:58:34.105Z,49.73
2023-05-11T04:01:02.504Z,45.60
2023-05-11T04:03:31.096Z,41.73
2023-05-11T04:05:59.563Z,39.53
2023-05-11T04:08:29.789Z,42.20
2023-05-11T04:10:58.121Z,45.10
2023-05-11T04:13:27.052Z,51.60
2023-05-11T04:15:55.961Z,46.77
2023-05-11T04:18:24.850Z,50.33
2023-05-11T04:20:53.212Z,45.27
2023-05-11T04:23:22.828Z,42.07
2023-05-11T04:25:56.395Z,47.53
2023-05-11T04:28:27.830Z,36.60
2023-05-11T04:30:57.064Z,40.20
2023-05-11T04:33:26.245Z,37.20
2023-05-11T04:35:56.222Z,37.60
2023-05-11T04:38:25.606Z,35.87
2023-05-11T04:40:56.026Z,35.33
2023-05-11T04:43:25.160Z,36.57
2023-05-11T04:45:53.564Z,33.57
2023-05-11T04:48:22.401Z,34.43
2023-05-11T04:50:51.163Z,32.13
2023-05-11T04:53:20.469Z,33.17
2023-05-11T04:55:48.985Z,37.57
2023-05-11T04:58:20.875Z,38.23
2023-05-11T05:00:49.271Z,44.60
2023-05-11T05:03:17.885Z,40.73
2023-05-11T05:05:46.249Z,46.37
2023-05-11T05:08:14.745Z,41.10
2023-05-11T05:10:43.146Z,41.30
2023-05-11T05:13:11.550Z,35.50
2023-05-11T05:15:41.315Z,34.67
2023-05-11T05:18:09.909Z,34.77
2023-05-11T05:20:38.341Z,33.47
2023-05-11T05:23:06.908Z,35.07
2023-05-11T05:25:35.405Z,36.50
2023-05-11T05:28:03.792Z,33.90
2023-05-11T05:30:32.366Z,32.17
2023-05-11T05:33:02.184Z,29.10
2023-05-11T05:35:30.728Z,26.33
2023-05-11T05:37:59.073Z,27.43
2023-05-11T05:40:29.093Z,28.57
2023-05-11T05:42:57.546Z,25.17
2023-05-11T05:45:26.123Z,23.37
2023-05-11T05:47:55.162Z,20.90
2023-05-11T05:50:25.119Z,21.60
2023-05-11T05:52:55.259Z,21.37
2023-05-11T05:55:24.761Z,21.13
2023-05-11T05:57:53.742Z,18.33
2023-05-11T06:00:22.704Z,21.00
2023-05-11T06:02:51.464Z,18.37
2023-05-11T06:05:20.076Z,20.43
2023-05-11T06:08:01.781Z,17.70
2023-05-11T06:10:39.070Z,21.50
2023-05-11T06:13:08.939Z,17.10
2023-05-11T06:15:37.339Z,20.00
2023-05-11T06:18:06.268Z,17.40
2023-05-11T06:20:34.730Z,19.50
2023-05-11T06:23:04.656Z,18.47
2023-05-11T06:25:35.977Z,20.77
2023-05-11T06:28:04.764Z,19.00
2023-05-11T06:30:33.211Z,17.70
2023-05-11T06:33:01.662Z,19.40
2023-05-11T06:35:30.405Z,19.30
2023-05-11T06:37:59.292Z,19.23
2023-05-11T06:40:30.173Z,19.50
2023-05-11T06:42:58.646Z,20.60
2023-05-11T06:45:27.873Z,19.47
2023-05-11T06:47:56.610Z,16.80
2023-05-11T06:50:27.899Z,17.07
2023-05-11T06:52:56.721Z,15.47
2023-05-11T06:55:27.833Z,16.93
2023-05-11T06:57:58.143Z,14.33
2023-05-11T07:00:27.156Z,14.97
2023-05-11T07:02:56.097Z,20.87
2023-05-11T07:05:24.707Z,17.13
2023-05-11T07:07:53.189Z,16.07
2023-05-11T07:10:21.813Z,18.70
2023-05-11T07:12:51.263Z,17.13
2023-05-11T07:15:21.218Z,16.03
2023-05-11T07:17:50.175Z,16.43
2023-05-11T07:20:19.185Z,14.50
2023-05-11T07:22:47.694Z,15.03
2023-05-11T07:25:16.089Z,17.13
2023-05-11T07:27:44.573Z,18.13
2023-05-11T07:30:13.973Z,16.93
2023-05-11T07:32:46.855Z,18.17
2023-05-11T07:35:16.255Z,15.10
2023-05-11T07:37:45.351Z,13.73
2023-05-11T07:40:13.994Z,15.27
2023-05-11T07:42:42.716Z,15.53
2023-05-11T07:45:12.058Z,16.10
2023-05-11T07:47:40.431Z,14.20
2023-05-11T07:50:11.550Z,13.27
2023-05-11T07:52:39.916Z,14.87
2023-05-11T07:55:09.626Z,13.77
2023-05-11T07:57:38.151Z,13.63
2023-05-11T08:00:10.990Z,13.00
2023-05-11T08:02:40.382Z,12.77
2023-05-11T08:05:11.711Z,13.93
2023-05-11T08:07:41.634Z,11.83
2023-05-11T08:10:11.523Z,12.77
2023-05-11T08:12:43.323Z,13.30
2023-05-11T08:15:12.910Z,11.40
2023-05-11T08:17:43.300Z,11.20
2023-05-11T08:20:14.610Z,11.77
2023-05-11T08:22:43.156Z,11.60
2023-05-11T08:25:12.203Z,13.13
2023-05-11T08:27:40.891Z,12.80
2023-05-11T08:30:11.973Z,12.27
2023-05-11T08:32:50.486Z,9.90
2023-05-11T08:35:27.786Z,11.27
2023-05-11T08:37:56.280Z,12.00
2023-05-11T08:40:28.466Z,12.03
2023-05-11T08:42:58.559Z,12.13
2023-05-11T08:45:28.224Z,12.37
2023-05-11T08:47:57.911Z,13.30
2023-05-11T08:50:28.641Z,12.97
2023-05-11T08:52:57.293Z,12.87
2023-05-11T08:55:27.710Z,12.00
2023-05-11T08:57:59.850Z,13.47
2023-05-11T09:00:29.530Z,15.77
2023-05-11T09:02:59.806Z,12.17
2023-05-11T09:05:30.134Z,13.87
2023-05-11T09:08:03.270Z,14.50
2023-05-11T09:10:32.491Z,14.67
2023-05-11T09:13:01.100Z,14.90
2023-05-11T09:15:29.660Z,14.43
2023-05-11T09:18:05.998Z,29.90
2023-05-11T09:20:36.564Z,11.63
2023-05-11T09:23:04.891Z,11.43
2023-05-11T09:25:35.134Z,10.83
2023-05-11T09:28:03.918Z,10.47
2023-05-11T09:30:32.678Z,9.47
2023-05-11T09:33:02.464Z,10.00
2023-05-11T09:35:33.373Z,9.57
2023-05-11T09:38:06.180Z,8.57
2023-05-11T09:40:37.874Z,8.80
2023-05-11T09:43:18.509Z,8.23
2023-05-11T09:45:48.758Z,9.50
2023-05-11T09:48:28.803Z,9.67
2023-05-11T09:51:09.056Z,9.57
2023-05-11T09:53:43.573Z,8.60
2023-05-11T09:56:12.765Z,8.77
2023-05-11T09:58:49.547Z,8.47
2023-05-11T10:01:20.473Z,8.60
2023-05-11T10:03:51.848Z,9.27
2023-05-11T10:06:21.087Z,9.33
2023-05-11T10:08:51.397Z,9.13
2023-05-11T10:11:26.011Z,9.07
2023-05-11T10:13:55.332Z,9.00
2023-05-11T10:16:25.056Z,8.53
2023-05-11T10:18:53.861Z,8.77
2023-05-11T10:21:23.193Z,9.50
2023-05-11T10:23:53.759Z,9.37
2023-05-11T10:26:22.640Z,9.03
2023-05-11T10:28:52.245Z,8.93
2023-05-11T10:31:24.282Z,9.30
2023-05-11T10:33:53.283Z,9.53
2023-05-11T10:36:25.232Z,10.23
2023-05-11T10:38:56.450Z,8.07
2023-05-11T10:41:49.037Z,8.87
2023-05-11T10:44:52.080Z,8.70
2023-05-11T10:48:07.046Z,9.30
2023-05-11T10:50:58.659Z,8.13
2023-05-11T10:53:59.330Z,8.03
2023-05-11T10:56:58.161Z,7.57
2023-05-11T11:00:06.992Z,7.63
2023-05-11T11:02:37.789Z,8.23
2023-05-11T11:05:10.950Z,7.00
2023-05-11T11:08:04.931Z,6.73
2023-05-11T11:10:40.438Z,6.77
2023-05-11T11:13:11.974Z,6.43
2023-05-11T11:16:13.253Z,6.25
2023-05-11T11:18:45.226Z,5.40
2023-05-11T11:21:16.701Z,6.03
2023-05-11T11:23:50.508Z,5.13
2023-05-11T11:26:58.701Z,5.50
2023-05-11T11:29:28.767Z,5.15
2023-05-11T11:32:36.288Z,5.03
2023-05-11T11:35:08.135Z,4.63
2023-05-11T11:38:11.082Z,5.15
2023-05-11T11:40:50.560Z,4.95
2023-05-11T11:43:25.106Z,4.65
2023-05-11T11:45:56.199Z,4.90
2023-05-11T11:48:37.341Z,3.85
2023-05-11T11:51:11.073Z,5.72
2023-05-11T11:54:03.975Z,5.32
2023-05-11T11:56:49.415Z,5.80
2023-05-11T11:59:20.293Z,3.83
2023-05-11T12:01:55.581Z,3.80
2023-05-11T12:04:59.736Z,3.72
2023-05-11T12:07:34.536Z,4.10
2023-05-11T12:10:05.815Z,4.05
2023-05-11T12:12:36.680Z,3.80
2023-05-11T12:15:10.820Z,4.20
2023-05-11T12:17:42.712Z,4.15
2023-05-11T12:20:17.612Z,3.55
2023-05-11T12:22:49.381Z,3.83
2023-05-11T12:25:20.257Z,3.50
2023-05-11T12:27:55.450Z,3.03
2023-05-11T12:30:28.543Z,3.40
2023-05-11T12:32:59.735Z,3.13
2023-05-11T12:35:30.677Z,3.53
2023-05-11T12:38:02.860Z,4.50
2023-05-11T12:40:33.280Z,6.68
2023-05-11T12:43:04.461Z,4.28
2023-05-11T12:45:35.394Z,3.90
2023-05-11T12:48:05.076Z,4.95
2023-05-11T12:50:45.635Z,4.72
2023-05-11T12:53:16.486Z,4.00
2023-05-11T12:55:44.929Z,5.00
2023-05-11T12:58:16.294Z,5.00
2023-05-11T13:00:58.447Z,5.53
2023-05-11T13:03:30.062Z,4.68
2023-05-11T13:06:09.194Z,5.05
2023-05-11T13:08:41.171Z,5.65
2023-05-11T13:11:23.543Z,4.15
2023-05-11T13:13:52.533Z,4.95
2023-05-11T13:16:31.124Z,4.18
2023-05-11T13:19:02.221Z,4.38
2023-05-11T13:21:33.742Z,3.63
2023-05-11T13:24:04.265Z,3.55
2023-05-11T13:26:34.249Z,4.75
2023-05-11T13:29:10.730Z,3.50
2023-05-11T13:31:47.869Z,4.10
2023-05-11T13:34:17.359Z,4.20
2023-05-11T13:36:48.633Z,4.07
2023-05-11T13:39:18.099Z,3.20
2023-05-11T13:41:47.872Z,5.15
2023-05-11T13:44:17.239Z,5.03
2023-05-11T13:46:46.995Z,3.95
2023-05-11T13:49:15.832Z,4.60
2023-05-11T13:51:44.107Z,4.10
2023-05-11T13:54:13.261Z,4.57
2023-05-11T13:56:41.824Z,4.65
2023-05-11T13:59:10.478Z,4.22
2023-05-11T14:01:38.951Z,4.50
2023-05-11T14:04:08.734Z,3.20
2023-05-11T14:06:37.897Z,4.15
2023-05-11T14:09:06.359Z,6.30
2023-05-11T14:11:35.120Z,3.95
2023-05-11T14:14:04.340Z,3.97
2023-05-11T14:16:32.990Z,4.43
2023-05-11T14:19:01.365Z,3.88
2023-05-11T14:21:32.587Z,3.72
2023-05-11T14:24:11.478Z,3.28
2023-05-11T14:26:41.618Z,3.85
2023-05-11T14:29:10.103Z,4.40
2023-05-11T14:31:39.124Z,4.22
2023-05-11T14:34:07.768Z,3.78
2023-05-11T14:36:38.188Z,3.53
2023-05-11T14:39:06.634Z,3.90
2023-05-11T14:41:35.019Z,3.90
2023-05-11T14:44:03.390Z,4.50
2023-05-11T14:46:31.822Z,3.80
2023-05-11T14:49:00.789Z,3.53
2023-05-11T14:51:29.415Z,3.03
2023-05-11T14:53:59.244Z,3.35
2023-05-11T14:56:28.078Z,3.17
2023-05-11T14:58:57.001Z,3.30
2023-05-11T15:01:25.510Z,3.72
2023-05-11T15:03:54.027Z,4.72
2023-05-11T15:06:23.612Z,5.32
2023-05-11T15:08:54.897Z,5.43
2023-05-11T15:11:25.307Z,5.28
2023-05-11T15:13:54.021Z,6.30
2023-05-11T15:16:22.855Z,5.93
2023-05-11T15:18:51.622Z,6.18
2023-05-11T15:21:25.402Z,6.40
2023-05-11T15:23:53.744Z,5.93
2023-05-11T15:26:24.040Z,5.70
2023-05-11T15:28:52.786Z,6.07
2023-05-11T15:31:22.327Z,6.37
2023-05-11T15:33:51.202Z,6.33
2023-05-11T15:36:19.881Z,7.20
2023-05-11T15:38:48.241Z,7.03
2023-05-11T15:41:17.617Z,7.00
2023-05-11T15:43:47.447Z,10.17
2023-05-11T15:46:15.820Z,6.33
2023-05-11T15:48:44.246Z,6.23
2023-05-11T15:51:12.987Z,6.00
2023-05-11T15:53:42.506Z,6.20
2023-05-11T15:56:11.654Z,6.43
2023-05-11T15:58:40.261Z,6.03
2023-05-11T16:01:10.272Z,6.30
2023-05-11T16:03:38.859Z,6.50
2023-05-11T16:06:08.173Z,7.73
2023-05-11T16:08:36.705Z,6.13
2023-05-11T16:11:06.074Z,5.70
2023-05-11T16:13:34.390Z,7.40
2023-05-11T16:16:02.996Z,8.80
2023-05-11T16:18:32.744Z,6.67
2023-05-11T16:21:01.576Z,7.03
2023-05-11T16:23:30.234Z,6.53
2023-05-11T16:26:00.750Z,6.47
2023-05-11T16:28:29.222Z,6.77
2023-05-11T16:30:59.332Z,7.93
2023-05-11T16:33:28.186Z,6.93
2023-05-11T16:35:58.093Z,6.80
2023-05-11T16:38:26.522Z,7.20
2023-05-11T16:40:55.424Z,7.40
2023-05-11T16:43:23.812Z,8.33
2023-05-11T16:45:52.793Z,8.17
2023-05-11T16:48:21.730Z,7.57
2023-05-11T16:50:50.931Z,6.90
2023-05-11T16:53:22.305Z,7.77
2023-05-11T16:55:51.020Z,6.90
2023-05-11T16:58:20.571Z,6.87
2023-05-11T17:00:49.913Z,8.50
2023-05-11T17:03:19.828Z,7.73
2023-05-11T17:05:48.814Z,11.83
2023-05-11T17:08:17.416Z,8.20
2023-05-11T17:10:47.349Z,7.47
2023-05-11T17:13:15.945Z,7.17
2023-05-11T17:15:44.457Z,7.30
2023-05-11T17:18:13.841Z,8.07
2023-05-11T17:20:44.340Z,8.80
2023-05-11T17:23:12.901Z,11.23
2023-05-11T17:25:42.774Z,10.00
2023-05-11T17:28:14.323Z,8.17
2023-05-11T17:30:48.572Z,8.53
2023-05-11T17:33:17.810Z,9.50
2023-05-11T17:35:46.525Z,10.23
2023-05-11T17:38:15.013Z,10.73
2023-05-11T17:40:44.482Z,10.30
2023-05-11T17:43:14.228Z,9.57
2023-05-11T17:45:42.716Z,11.83
2023-05-11T17:48:11.726Z,11.00
2023-05-11T17:50:40.284Z,12.23
2023-05-11T17:53:08.748Z,13.03
2023-05-11T17:55:40.431Z,12.50
2023-05-11T17:58:08.796Z,13.27
2023-05-11T18:00:38.716Z,13.73
2023-05-11T18:03:07.407Z,12.60
2023-05-11T18:05:48.650Z,12.73
2023-05-11T18:08:17.696Z,12.30
2023-05-11T18:10:46.852Z,12.70
2023-05-11T18:13:17.293Z,12.67
2023-05-11T18:15:47.878Z,13.10
2023-05-11T18:18:16.314Z,12.60
2023-05-11T18:20:46.480Z,10.53
2023-05-11T18:23:15.243Z,13.37
2023-05-11T18:25:44.126Z,12.13
2023-05-11T18:28:12.631Z,14.53
2023-05-11T18:30:41.091Z,13.80
2023-05-11T18:33:11.634Z,13.67
2023-05-11T18:35:41.704Z,11.30
2023-05-11T18:38:10.125Z,12.73
2023-05-11T18:40:38.483Z,13.67
2023-05-11T18:43:06.862Z,13.23
2023-05-11T18:45:35.303Z,12.43
2023-05-11T18:48:04.714Z,14.20
2023-05-11T18:50:34.784Z,14.33
2023-05-11T18:53:03.242Z,13.23
2023-05-11T18:55:41.117Z,13.13
2023-05-11T18:58:20.418Z,12.87
2023-05-11T19:00:49.644Z,13.70
2023-05-11T19:03:20.947Z,11.03
2023-05-11T19:05:52.084Z,11.07
2023-05-11T19:08:20.693Z,11.20
2023-05-11T19:10:49.509Z,12.07
2023-05-11T19:13:18.645Z,10.77
2023-05-11T19:15:47.454Z,11.87
2023-05-11T19:18:17.264Z,12.90
2023-05-11T19:20:45.995Z,13.20
2023-05-11T19:23:15.915Z,10.63
2023-05-11T19:25:44.468Z,13.67
2023-05-11T19:28:12.911Z,14.30
2023-05-11T19:30:41.480Z,13.00
2023-05-11T19:33:09.909Z,14.23
2023-05-11T19:35:38.359Z,13.43
2023-05-11T19:38:07.321Z,14.67
2023-05-11T19:40:46.019Z,14.07
2023-05-11T19:43:15.249Z,14.67
2023-05-11T19:45:45.478Z,12.13
2023-05-11T19:48:14.620Z,14.37
2023-05-11T19:50:43.333Z,13.63
2023-05-11T19:53:12.371Z,15.87
2023-05-11T19:55:42.304Z,17.13
2023-05-11T19:58:10.889Z,15.43
2023-05-11T20:00:41.070Z,18.80
2023-05-11T20:03:09.584Z,21.27
2023-05-11T20:05:38.421Z,18.27
2023-05-11T20:08:07.835Z,21.07
2023-05-11T20:10:37.795Z,22.93
2023-05-11T20:13:08.314Z,21.30
2023-05-11T20:15:36.829Z,22.93
2023-05-11T20:18:05.524Z,22.50
2023-05-11T20:20:34.718Z,23.13
2023-05-11T20:23:03.521Z,20.83
2023-05-11T20:25:32.133Z,24.77
2023-05-11T20:28:00.950Z,26.07
2023-05-11T20:30:30.787Z,28.87
2023-05-11T20:35:31.163Z,29.80
2023-05-11T20:37:59.629Z,28.97
2023-05-11T20:40:28.540Z,32.93
2023-05-11T20:42:56.910Z,29.43
2023-05-11T20:45:25.502Z,33.70
2023-05-11T20:47:55.496Z,30.00
2023-05-11T20:50:24.740Z,29.70
2023-05-11T20:52:53.317Z,25.10
2023-05-11T20:55:22.434Z,21.47
2023-05-11T20:57:50.894Z,23.87
2023-05-11T21:00:19.848Z,19.90
2023-05-11T21:02:48.734Z,18.20
2023-05-11T21:05:19.540Z,18.90
2023-05-11T21:07:48.002Z,16.00
2023-05-11T21:10:16.967Z,15.63
2023-05-11T21:12:45.514Z,14.60
2023-05-11T21:15:14.236Z,13.80
2023-05-11T21:17:42.970Z,14.27
2023-05-11T21:20:12.641Z,14.73
2023-05-11T21:22:42.460Z,15.37
2023-05-11T21:25:12.762Z,12.63
2023-05-11T21:27:41.564Z,14.37
2023-05-11T21:30:11.182Z,14.23
2023-05-11T21:32:39.692Z,12.97
2023-05-11T21:35:09.581Z,11.33
2023-05-11T21:37:38.115Z,14.47
2023-05-11T21:40:12.091Z,18.07
2023-05-11T21:42:40.396Z,16.27
2023-05-11T21:45:10.607Z,20.43
2023-05-11T21:47:39.452Z,20.50
2023-05-11T21:50:10.991Z,19.80
2023-05-11T21:52:39.708Z,18.20
2023-05-11T21:55:11.101Z,19.90
2023-05-11T21:57:39.647Z,19.63
2023-05-11T22:00:11.128Z,18.30
2023-05-11T22:02:41.471Z,19.23
2023-05-11T22:05:11.449Z,19.33
2023-05-11T22:07:40.098Z,21.50
2023-05-11T22:10:13.632Z,19.63
2023-05-11T22:12:44.124Z,23.13
2023-05-11T22:15:14.438Z,22.77
2023-05-11T22:17:45.164Z,21.37
2023-05-11T22:20:14.433Z,26.60
2023-05-11T22:22:43.474Z,23.83
2023-05-11T22:25:16.672Z,22.20
2023-05-11T22:27:46.264Z,22.00
2023-05-11T22:30:15.119Z,20.20
2023-05-11T22:32:48.680Z,19.37
2023-05-11T22:35:17.578Z,20.20
2023-05-11T22:37:46.075Z,20.17
2023-05-11T22:40:16.282Z,17.67
2023-05-11T22:42:44.919Z,16.80
2023-05-11T22:45:13.561Z,16.60
2023-05-11T22:47:42.307Z,14.30
2023-05-11T22:50:12.201Z,13.90
2023-05-11T22:52:40.558Z,12.87
2023-05-11T22:55:10.662Z,15.30
2023-05-11T22:57:40.381Z,15.50
2023-05-11T23:00:10.993Z,18.20
2023-05-11T23:02:39.579Z,17.27
2023-05-11T23:05:09.324Z,22.57
2023-05-11T23:07:37.944Z,21.40
2023-05-11T23:10:07.750Z,24.37
2023-05-11T23:12:36.298Z,25.07
2023-05-11T23:15:08.481Z,25.53
2023-05-11T23:17:37.104Z,24.97
2023-05-11T23:20:06.936Z,29.83
2023-05-11T23:22:35.423Z,28.83
2023-05-11T23:25:04.029Z,31.03
2023-05-11T23:27:32.461Z,31.53
2023-05-11T23:30:00.873Z,38.80
2023-05-11T23:32:30.842Z,44.87
2023-05-11T23:34:59.307Z,39.57
2023-05-11T23:37:28.063Z,44.50
2023-05-11T23:39:56.566Z,46.67
2023-05-11T23:42:25.228Z,41.80
2023-05-11T23:44:53.904Z,46.40
2023-05-11T23:47:22.523Z,51.73
2023-05-11T23:49:52.514Z,46.23
2023-05-11T23:52:28.066Z,58.67
2023-05-11T23:54:57.116Z,55.27
2023-05-11T23:57:26.077Z,52.90
2023-05-11T23:59:54.505Z,48.57
